Thunder radar more information blitzortung!


Radar de pluja more information rain snow radar


Visita la nostra xarxa de llocs de meteo:

Template documentation
and downloads

And another site



Wind From: 11-12-2017 11:00 Until: 14:59 warning for: Wind Level: Yellow info button

Pagina Historial Weather Underground text

Diari Resum Setembre 25, 2017 Unitats:  Tant    Imperial   Mètric
« Previous Dia
SegĂźent Dia »
Diari Setmana Mensual Anual Personalitzada
  Maxima: Minima: Media:
Temperatura: 77.2 °F /  25.1 °C 61 °F /  16.1 °C 70 °F /  21.1 °C
Punt de rosada: 64.4 °F /  18.0 °C 53.1 °F /  11.7 °C 59.4 °F /  15.2 °C
Humitat: 93 % 56 % 70 %
Wind Speed: 12.7 mph /  20.4 km/h - 5.1 mph /  8.2 km/h
RĂ fegues de vent: 12.7 mph /  20.4 km/h - -
Vent:- - East
Pression baro: 30.2 in /  1021.9 hPa 30 in /  1016.8 hPa -
Precipitacions: 0 in /  0.0 mm    
Historical Graphs
 
 
Dades de taula per Setembre 25, 2017
Temps Temperatura Punt de rosada Pression baro Vent Wind Speed RĂ fegues de vent Humitat Rainfall Rate (Hourly)
00:00 64.6 °F /  18.1 °C 61 °F /  16.1 °C 30 in /  1016.8 hPa Calm     88 % 0 in /  0.0 mm
00:03 66.4 °F /  19.1 °C 61.2 °F /  16.2 °C 30.1 in /  1019.9 hPa SW 1.2 mph /  1.9 km/h   83 % 0 in /  0.0 mm
00:10 64.4 °F /  18.0 °C 60.8 °F /  16.0 °C 30 in /  1016.8 hPa Calm   1 mph /  1.6 km/h 88 % 0 in /  0.0 mm
00:20 63.9 °F /  17.7 °C 60.3 °F /  15.7 °C 30 in /  1016.8 hPa SSE 1 mph /  1.6 km/h 1 mph /  1.6 km/h 88 % 0 in /  0.0 mm
00:30 63.5 °F /  17.5 °C 59.9 °F /  15.5 °C 30.1 in /  1017.8 hPa South 1 mph /  1.6 km/h 2 mph /  3.2 km/h 88 % 0 in /  0.0 mm
00:40 63.3 °F /  17.4 °C 59.7 °F /  15.4 °C 30 in /  1016.8 hPa SW 1 mph /  1.6 km/h 2 mph /  3.2 km/h 88 % 0 in /  0.0 mm
00:50 63.1 °F /  17.3 °C 59.7 °F /  15.4 °C 30 in /  1016.8 hPa Calm   2 mph /  3.2 km/h 89 % 0 in /  0.0 mm
01:00 62.8 °F /  17.1 °C 59.5 °F /  15.3 °C 30 in /  1016.8 hPa SW 1 mph /  1.6 km/h 2 mph /  3.2 km/h 89 % 0 in /  0.0 mm
01:10 62.6 °F /  17.0 °C 59.4 °F /  15.2 °C 30 in /  1016.8 hPa Calm   2 mph /  3.2 km/h 89 % 0 in /  0.0 mm
01:20 62.4 °F /  16.9 °C 59.4 °F /  15.2 °C 30 in /  1016.8 hPa SW 1 mph /  1.6 km/h 2 mph /  3.2 km/h 90 % 0 in /  0.0 mm
01:30 62.2 °F /  16.8 °C 59.4 °F /  15.2 °C 30 in /  1016.8 hPa Calm   2 mph /  3.2 km/h 90 % 0 in /  0.0 mm
01:40 62.2 °F /  16.8 °C 59.4 °F /  15.2 °C 30.1 in /  1017.8 hPa Calm     90 % 0 in /  0.0 mm
01:50 62.1 °F /  16.7 °C 59.4 °F /  15.2 °C 30.1 in /  1017.8 hPa Calm   1 mph /  1.6 km/h 91 % 0 in /  0.0 mm
02:00 62.1 °F /  16.7 °C 59.4 °F /  15.2 °C 30.1 in /  1017.8 hPa Calm     91 % 0 in /  0.0 mm
02:10 61.7 °F /  16.5 °C 58.6 °F /  14.8 °C 30.1 in /  1017.8 hPa SW 1 mph /  1.6 km/h 2 mph /  3.2 km/h 90 % 0 in /  0.0 mm
02:20 61.5 °F /  16.4 °C 58.8 °F /  14.9 °C 30.1 in /  1017.8 hPa Calm   2 mph /  3.2 km/h 91 % 0 in /  0.0 mm
02:30 61.7 °F /  16.5 °C 59 °F /  15.0 °C 30.1 in /  1017.8 hPa WSW 1 mph /  1.6 km/h 2 mph /  3.2 km/h 91 % 0 in /  0.0 mm
02:40 61.9 °F /  16.6 °C 59.2 °F /  15.1 °C 30.1 in /  1017.8 hPa Calm     91 % 0 in /  0.0 mm
02:50 61.9 °F /  16.6 °C 59.5 °F /  15.3 °C 30.1 in /  1017.8 hPa Calm     92 % 0 in /  0.0 mm
03:00 61.5 °F /  16.4 °C 58.8 °F /  14.9 °C 30.1 in /  1017.8 hPa Calm     91 % 0 in /  0.0 mm
03:10 61.3 °F /  16.3 °C 59 °F /  15.0 °C 30.1 in /  1017.8 hPa Calm     92 % 0 in /  0.0 mm
03:20 61 °F /  16.1 °C 58.3 °F /  14.6 °C 30.1 in /  1017.8 hPa Calm   2 mph /  3.2 km/h 91 % 0 in /  0.0 mm
03:30 61.2 °F /  16.2 °C 58.8 °F /  14.9 °C 30.1 in /  1017.8 hPa Calm   1 mph /  1.6 km/h 92 % 0 in /  0.0 mm
03:40 61.5 °F /  16.4 °C 59.2 °F /  15.1 °C 30 in /  1016.8 hPa Calm   1 mph /  1.6 km/h 92 % 0 in /  0.0 mm
03:50 61.7 °F /  16.5 °C 59.4 °F /  15.2 °C 30 in /  1016.8 hPa Calm     92 % 0 in /  0.0 mm
04:00 62.1 °F /  16.7 °C 60.1 °F /  15.6 °C 30.1 in /  1017.8 hPa Calm     93 % 0 in /  0.0 mm
04:10 62.4 °F /  16.9 °C 60.4 °F /  15.8 °C 30.1 in /  1017.8 hPa NNW 2 mph /  3.2 km/h 2 mph /  3.2 km/h 93 % 0 in /  0.0 mm
04:20 63.1 °F /  17.3 °C 61.2 °F /  16.2 °C 30.1 in /  1017.8 hPa Calm     93 % 0 in /  0.0 mm
04:30 63.5 °F /  17.5 °C 61.3 °F /  16.3 °C 30.1 in /  1017.8 hPa Calm     93 % 0 in /  0.0 mm
04:40 63.9 °F /  17.7 °C 61.5 °F /  16.4 °C 30.1 in /  1017.8 hPa Calm     92 % 0 in /  0.0 mm
04:50 64.6 °F /  18.1 °C 61.9 °F /  16.6 °C 30.1 in /  1017.8 hPa Calm   1 mph /  1.6 km/h 91 % 0 in /  0.0 mm
05:00 65.3 °F /  18.5 °C 62.6 °F /  17.0 °C 30.1 in /  1017.8 hPa SE 1 mph /  1.6 km/h 2 mph /  3.2 km/h 91 % 0 in /  0.0 mm
05:10 65.8 °F /  18.8 °C 62.8 °F /  17.1 °C 30.1 in /  1017.8 hPa Calm   2 mph /  3.2 km/h 90 % 0 in /  0.0 mm
05:20 66.6 °F /  19.2 °C 63 °F /  17.2 °C 30.1 in /  1017.8 hPa NNE 1 mph /  1.6 km/h 3 mph /  4.8 km/h 88 % 0 in /  0.0 mm
05:30 66.7 °F /  19.3 °C 62.4 °F /  16.9 °C 30.1 in /  1018.8 hPa NNE 3 mph /  4.8 km/h 4 mph /  6.4 km/h 86 % 0 in /  0.0 mm
10:32 68 °F /  20.0 °C 63.3 °F /  17.4 °C 30.1 in /  1018.8 hPa NNE 3.5 mph /  5.6 km/h 4.5 mph /  7.2 km/h 85 % 0 in /  0.0 mm
10:33 68 °F /  20.0 °C 63.3 °F /  17.4 °C 30.1 in /  1018.8 hPa NNE 3.5 mph /  5.6 km/h 4.5 mph /  7.2 km/h 85 % 0 in /  0.0 mm
10:34 67.8 °F /  19.9 °C 63.1 °F /  17.3 °C 30.1 in /  1017.8 hPa ENE 6.9 mph /  11.1 km/h 6.9 mph /  11.1 km/h 85 % 0 in /  0.0 mm
10:39 67.8 °F /  19.9 °C 62.8 °F /  17.1 °C 30.1 in /  1017.8 hPa WNW 2.3 mph /  3.7 km/h 2.3 mph /  3.7 km/h 84 % 0 in /  0.0 mm
10:44 68 °F /  20.0 °C 62.6 °F /  17.0 °C 30.1 in /  1017.8 hPa NNE 1.2 mph /  1.9 km/h   83 % 0 in /  0.0 mm
10:49 67.8 °F /  19.9 °C 62.4 °F /  16.9 °C 30.1 in /  1018.8 hPa East 4.6 mph /  7.4 km/h 4.6 mph /  7.4 km/h 83 % 0 in /  0.0 mm
10:54 68.4 °F /  20.2 °C 62.6 °F /  17.0 °C 30.1 in /  1018.8 hPa NE 2.3 mph /  3.7 km/h 2.3 mph /  3.7 km/h 82 % 0 in /  0.0 mm
10:59 69.3 °F /  20.7 °C 63.5 °F /  17.5 °C 30.1 in /  1018.8 hPa ENE 4.6 mph /  7.4 km/h 4.6 mph /  7.4 km/h 82 % 0 in /  0.0 mm
11:04 69.4 °F /  20.8 °C 63.3 °F /  17.4 °C 30.1 in /  1018.8 hPa NNE 4.6 mph /  7.4 km/h 4.6 mph /  7.4 km/h 81 % 0 in /  0.0 mm
11:09 70.2 °F /  21.2 °C 63.7 °F /  17.6 °C 30.1 in /  1018.8 hPa ENE 3.8 mph /  6.1 km/h 3.8 mph /  6.1 km/h 80 % 0 in /  0.0 mm
11:14 70.5 °F /  21.4 °C 63.7 °F /  17.6 °C 30.1 in /  1018.8 hPa ENE 4.6 mph /  7.4 km/h 4.6 mph /  7.4 km/h 79 % 0 in /  0.0 mm
11:19 70.3 °F /  21.3 °C 63.5 °F /  17.5 °C 30.1 in /  1017.8 hPa ENE 3.5 mph /  5.6 km/h 3.5 mph /  5.6 km/h 79 % 0 in /  0.0 mm
11:24 70.9 °F /  21.6 °C 63.7 °F /  17.6 °C 30.1 in /  1017.8 hPa East 3.5 mph /  5.6 km/h 3.5 mph /  5.6 km/h 78 % 0 in /  0.0 mm
11:29 71.4 °F /  21.9 °C 64.2 °F /  17.9 °C 30.1 in /  1017.8 hPa East 5.8 mph /  9.3 km/h 5.8 mph /  9.3 km/h 78 % 0 in /  0.0 mm
11:34 71.6 °F /  22.0 °C 63.7 °F /  17.6 °C 30.1 in /  1018.8 hPa ENE 5.8 mph /  9.3 km/h 5.8 mph /  9.3 km/h 76 % 0 in /  0.0 mm
11:39 71.6 °F /  22.0 °C 63.7 °F /  17.6 °C 30.1 in /  1018.8 hPa ESE 5.8 mph /  9.3 km/h 5.8 mph /  9.3 km/h 76 % 0 in /  0.0 mm
11:44 71.6 °F /  22.0 °C 63.3 °F /  17.4 °C 30.1 in /  1018.8 hPa NE 3.6 mph /  5.8 km/h 3.6 mph /  5.8 km/h 75 % 0 in /  0.0 mm
11:49 72.3 °F /  22.4 °C 63.7 °F /  17.6 °C 30.1 in /  1018.8 hPa SE 5.8 mph /  9.3 km/h 5.8 mph /  9.3 km/h 74 % 0 in /  0.0 mm
11:54 73.4 °F /  23.0 °C 64.2 °F /  17.9 °C 30.1 in /  1018.8 hPa SE 5.8 mph /  9.3 km/h 5.8 mph /  9.3 km/h 73 % 0 in /  0.0 mm
11:59 73.2 °F /  22.9 °C 63.7 °F /  17.6 °C 30.1 in /  1018.8 hPa East 5.8 mph /  9.3 km/h 5.8 mph /  9.3 km/h 72 % 0 in /  0.0 mm
12:04 73.6 °F /  23.1 °C 64 °F /  17.8 °C 30.1 in /  1018.8 hPa East 5.8 mph /  9.3 km/h 5.8 mph /  9.3 km/h 72 % 0 in /  0.0 mm
12:09 74.1 °F /  23.4 °C 64 °F /  17.8 °C 30.1 in /  1018.8 hPa ESE 4.6 mph /  7.4 km/h 4.6 mph /  7.4 km/h 71 % 0 in /  0.0 mm
12:14 74.8 °F /  23.8 °C 64.4 °F /  18.0 °C 30.1 in /  1018.8 hPa ESE 6.9 mph /  11.1 km/h 6.9 mph /  11.1 km/h 70 % 0 in /  0.0 mm
12:19 74.7 °F /  23.7 °C 64.2 °F /  17.9 °C 30.1 in /  1017.8 hPa ENE 6.4 mph /  10.3 km/h 6.4 mph /  10.3 km/h 70 % 0 in /  0.0 mm
12:24 74.5 °F /  23.6 °C 63.1 °F /  17.3 °C 30.1 in /  1017.8 hPa NE 12.7 mph /  20.4 km/h 12.7 mph /  20.4 km/h 68 % 0 in /  0.0 mm
12:29 75.2 °F /  24.0 °C 63.5 °F /  17.5 °C 30.1 in /  1017.8 hPa South 5.8 mph /  9.3 km/h 5.8 mph /  9.3 km/h 67 % 0 in /  0.0 mm
12:34 75.7 °F /  24.3 °C 63.7 °F /  17.6 °C 30.1 in /  1017.8 hPa East 4.6 mph /  7.4 km/h 4.6 mph /  7.4 km/h 66 % 0 in /  0.0 mm
12:39 75.6 °F /  24.2 °C 63.3 °F /  17.4 °C 30.1 in /  1017.8 hPa SSW 9.2 mph /  14.8 km/h 9.2 mph /  14.8 km/h 66 % 0 in /  0.0 mm
12:44 75.4 °F /  24.1 °C 62.8 °F /  17.1 °C 30.1 in /  1017.8 hPa ENE 8.1 mph /  13.0 km/h 8.1 mph /  13.0 km/h 65 % 0 in /  0.0 mm
12:49 75.2 °F /  24.0 °C 61.7 °F /  16.5 °C 30.1 in /  1018.8 hPa ENE 11.5 mph /  18.5 km/h 11.5 mph /  18.5 km/h 63 % 0 in /  0.0 mm
12:54 75.6 °F /  24.2 °C 62.4 °F /  16.9 °C 30.1 in /  1018.8 hPa South 5.8 mph /  9.3 km/h 5.8 mph /  9.3 km/h 64 % 0 in /  0.0 mm
12:59 76.3 °F /  24.6 °C 63.1 °F /  17.3 °C 30.1 in /  1018.8 hPa ENE 3.6 mph /  5.8 km/h 3.6 mph /  5.8 km/h 64 % 0 in /  0.0 mm
13:04 75.7 °F /  24.3 °C 62.8 °F /  17.1 °C 30.1 in /  1018.8 hPa ESE 5.8 mph /  9.3 km/h 5.8 mph /  9.3 km/h 64 % 0 in /  0.0 mm
13:05 75.7 °F /  24.3 °C 62.8 °F /  17.1 °C 30.1 in /  1018.8 hPa ENE 5.9 mph /  9.5 km/h 5.9 mph /  9.5 km/h 64 % 0 in /  0.0 mm
13:10 75.2 °F /  24.0 °C 62.2 °F /  16.8 °C 30.1 in /  1018.8 hPa ENE 6.9 mph /  11.1 km/h 6.9 mph /  11.1 km/h 64 % 0 in /  0.0 mm
13:15 75.4 °F /  24.1 °C 62.8 °F /  17.1 °C 30.1 in /  1018.8 hPa ESE 4.6 mph /  7.4 km/h 4.6 mph /  7.4 km/h 65 % 0 in /  0.0 mm
13:20 75.9 °F /  24.4 °C 62.4 °F /  16.9 °C 30.1 in /  1017.8 hPa South 4.6 mph /  7.4 km/h 4.6 mph /  7.4 km/h 63 % 0 in /  0.0 mm
13:25 76.3 °F /  24.6 °C 61.9 °F /  16.6 °C 30.1 in /  1017.8 hPa East 8.1 mph /  13.0 km/h 8.1 mph /  13.0 km/h 61 % 0 in /  0.0 mm
13:30 75.7 °F /  24.3 °C 61 °F /  16.1 °C 30.1 in /  1017.8 hPa ESE 9.2 mph /  14.8 km/h 9.2 mph /  14.8 km/h 60 % 0 in /  0.0 mm
13:35 75.9 °F /  24.4 °C 61 °F /  16.1 °C 30.1 in /  1017.8 hPa ESE 11.5 mph /  18.5 km/h 11.5 mph /  18.5 km/h 60 % 0 in /  0.0 mm
13:40 76.1 °F /  24.5 °C 60.6 °F /  15.9 °C 30.1 in /  1017.8 hPa ESE 9.2 mph /  14.8 km/h 9.2 mph /  14.8 km/h 59 % 0 in /  0.0 mm
13:45 76.1 °F /  24.5 °C 60.3 °F /  15.7 °C 30.1 in /  1017.8 hPa ENE 10.4 mph /  16.7 km/h 10.4 mph /  16.7 km/h 58 % 0 in /  0.0 mm
13:50 76.5 °F /  24.7 °C 61.2 °F /  16.2 °C 30.1 in /  1017.8 hPa ESE 5.4 mph /  8.7 km/h 5.4 mph /  8.7 km/h 59 % 0 in /  0.0 mm
13:55 76.5 °F /  24.7 °C 61.2 °F /  16.2 °C 30.1 in /  1017.8 hPa ESE 4.6 mph /  7.4 km/h 4.6 mph /  7.4 km/h 59 % 0 in /  0.0 mm
14:00 76.5 °F /  24.7 °C 61.2 °F /  16.2 °C 30.1 in /  1017.8 hPa ESE 6.9 mph /  11.1 km/h 6.9 mph /  11.1 km/h 59 % 0 in /  0.0 mm
14:05 75.9 °F /  24.4 °C 61 °F /  16.1 °C 30.1 in /  1017.8 hPa ESE 5.8 mph /  9.3 km/h 5.8 mph /  9.3 km/h 60 % 0 in /  0.0 mm
14:10 77.2 °F /  25.1 °C 62.2 °F /  16.8 °C 30.1 in /  1017.8 hPa NNE 9.2 mph /  14.8 km/h 9.2 mph /  14.8 km/h 60 % 0 in /  0.0 mm
14:15 77.2 °F /  25.1 °C 61.7 °F /  16.5 °C 30.1 in /  1017.8 hPa East 5.8 mph /  9.3 km/h 5.8 mph /  9.3 km/h 59 % 0 in /  0.0 mm
14:20 76.5 °F /  24.7 °C 61.5 °F /  16.4 °C 30.1 in /  1017.8 hPa ESE 8.1 mph /  13.0 km/h 8.1 mph /  13.0 km/h 60 % 0 in /  0.0 mm
14:25 75.9 °F /  24.4 °C 61.5 °F /  16.4 °C 30.1 in /  1017.8 hPa East 3.5 mph /  5.6 km/h 5.6 mph /  9.0 km/h 61 % 0 in /  0.0 mm
14:30 76.8 °F /  24.9 °C 61.9 °F /  16.6 °C 30.1 in /  1017.8 hPa ENE 8.7 mph /  14.0 km/h 8.7 mph /  14.0 km/h 60 % 0 in /  0.0 mm
14:35 76.3 °F /  24.6 °C 61.3 °F /  16.3 °C 30.1 in /  1017.8 hPa ENE 6.9 mph /  11.1 km/h 6.9 mph /  11.1 km/h 60 % 0 in /  0.0 mm
14:40 76.3 °F /  24.6 °C 61 °F /  16.1 °C 30.1 in /  1017.8 hPa ENE 5.4 mph /  8.7 km/h 5.4 mph /  8.7 km/h 59 % 0 in /  0.0 mm
14:45 76.5 °F /  24.7 °C 61.5 °F /  16.4 °C 30.1 in /  1017.8 hPa East 5.8 mph /  9.3 km/h 5.8 mph /  9.3 km/h 60 % 0 in /  0.0 mm
14:50 76.6 °F /  24.8 °C 61.7 °F /  16.5 °C 30.1 in /  1017.8 hPa ESE 8.1 mph /  13.0 km/h 8.1 mph /  13.0 km/h 60 % 0 in /  0.0 mm
14:55 77 °F /  25.0 °C 61.5 °F /  16.4 °C 30.1 in /  1017.8 hPa ESE 6.9 mph /  11.1 km/h 6.9 mph /  11.1 km/h 59 % 0 in /  0.0 mm
15:00 76.3 °F /  24.6 °C 61.3 °F /  16.3 °C 30.1 in /  1017.8 hPa East 9.7 mph /  15.6 km/h 9.7 mph /  15.6 km/h 60 % 0 in /  0.0 mm
15:05 76.5 °F /  24.7 °C 62.4 °F /  16.9 °C 30.1 in /  1017.8 hPa ESE 6.9 mph /  11.1 km/h 6.9 mph /  11.1 km/h 62 % 0 in /  0.0 mm
15:10 76.1 °F /  24.5 °C 61.7 °F /  16.5 °C 30.1 in /  1017.8 hPa East 5.8 mph /  9.3 km/h 5.8 mph /  9.3 km/h 61 % 0 in /  0.0 mm
15:15 75.7 °F /  24.3 °C 61.9 °F /  16.6 °C 30.1 in /  1017.8 hPa ENE 8.1 mph /  13.0 km/h 8.1 mph /  13.0 km/h 62 % 0 in /  0.0 mm
15:20 75.9 °F /  24.4 °C 62.4 °F /  16.9 °C 30.1 in /  1017.8 hPa ENE 6 mph /  9.7 km/h 6 mph /  9.7 km/h 63 % 0 in /  0.0 mm
15:25 75.6 °F /  24.2 °C 62.1 °F /  16.7 °C 30.1 in /  1017.8 hPa ENE 6.9 mph /  11.1 km/h 6.9 mph /  11.1 km/h 63 % 0 in /  0.0 mm
15:30 75.4 °F /  24.1 °C 61.9 °F /  16.6 °C 30.1 in /  1017.8 hPa ENE 5.8 mph /  9.3 km/h 5.8 mph /  9.3 km/h 63 % 0 in /  0.0 mm
15:35 75.4 °F /  24.1 °C 61.9 °F /  16.6 °C 30.1 in /  1017.8 hPa ESE 6 mph /  9.7 km/h 6 mph /  9.7 km/h 63 % 0 in /  0.0 mm
15:40 75.2 °F /  24.0 °C 61.7 °F /  16.5 °C 30.1 in /  1017.8 hPa ESE 9.7 mph /  15.6 km/h 9.7 mph /  15.6 km/h 63 % 0 in /  0.0 mm
15:45 75 °F /  23.9 °C 62.1 °F /  16.7 °C 30.1 in /  1017.8 hPa ESE 11.5 mph /  18.5 km/h 11.5 mph /  18.5 km/h 64 % 0 in /  0.0 mm
15:50 75 °F /  23.9 °C 62.1 °F /  16.7 °C 30.1 in /  1017.8 hPa ESE 5.8 mph /  9.3 km/h 5.8 mph /  9.3 km/h 64 % 0 in /  0.0 mm
15:55 75 °F /  23.9 °C 62.1 °F /  16.7 °C 30.1 in /  1017.8 hPa ESE 10 mph /  16.1 km/h 10 mph /  16.1 km/h 64 % 0 in /  0.0 mm
16:00 74.8 °F /  23.8 °C 61.9 °F /  16.6 °C 30.1 in /  1017.8 hPa ENE 7.8 mph /  12.6 km/h 7.8 mph /  12.6 km/h 64 % 0 in /  0.0 mm
16:05 75.2 °F /  24.0 °C 61.7 °F /  16.5 °C 30.1 in /  1017.8 hPa ESE 5.8 mph /  9.3 km/h 5.8 mph /  9.3 km/h 63 % 0 in /  0.0 mm
16:10 75 °F /  23.9 °C 62.1 °F /  16.7 °C 30.1 in /  1017.8 hPa East 5.8 mph /  9.3 km/h 5.8 mph /  9.3 km/h 64 % 0 in /  0.0 mm
16:15 75.2 °F /  24.0 °C 61.3 °F /  16.3 °C 30.1 in /  1017.8 hPa East 8.1 mph /  13.0 km/h 8.1 mph /  13.0 km/h 62 % 0 in /  0.0 mm
16:23 74.8 °F /  23.8 °C 61.3 °F /  16.3 °C 30.1 in /  1017.8 hPa ENE 8.1 mph /  13.0 km/h 8.1 mph /  13.0 km/h 63 % 0 in /  0.0 mm
16:28 74.8 °F /  23.8 °C 61.3 °F /  16.3 °C 30.1 in /  1017.8 hPa ENE 9.2 mph /  14.8 km/h 9.2 mph /  14.8 km/h 63 % 0 in /  0.0 mm
16:33 75.2 °F /  24.0 °C 61.3 °F /  16.3 °C 30 in /  1016.8 hPa South 4.6 mph /  7.4 km/h 4.6 mph /  7.4 km/h 62 % 0 in /  0.0 mm
16:38 75.4 °F /  24.1 °C 61 °F /  16.1 °C 30 in /  1016.8 hPa SE 4.6 mph /  7.4 km/h 4.6 mph /  7.4 km/h 61 % 0 in /  0.0 mm
16:43 75.2 °F /  24.0 °C 60.8 °F /  16.0 °C 30 in /  1016.8 hPa ESE 5.6 mph /  9.0 km/h 5.6 mph /  9.0 km/h 61 % 0 in /  0.0 mm
16:48 74.8 °F /  23.8 °C 60.4 °F /  15.8 °C 30.1 in /  1017.8 hPa ESE 8.1 mph /  13.0 km/h 8.1 mph /  13.0 km/h 61 % 0 in /  0.0 mm
16:53 74.8 °F /  23.8 °C 61 °F /  16.1 °C 30.1 in /  1017.8 hPa East 8.1 mph /  13.0 km/h 8.1 mph /  13.0 km/h 62 % 0 in /  0.0 mm
16:58 74.3 °F /  23.5 °C 60.1 °F /  15.6 °C 30.1 in /  1017.8 hPa ENE 9.2 mph /  14.8 km/h 9.2 mph /  14.8 km/h 61 % 0 in /  0.0 mm
17:03 74.3 °F /  23.5 °C 60.1 °F /  15.6 °C 30.1 in /  1017.8 hPa East 9.2 mph /  14.8 km/h 9.2 mph /  14.8 km/h 61 % 0 in /  0.0 mm
17:08 74.5 °F /  23.6 °C 60.1 °F /  15.6 °C 30.1 in /  1017.8 hPa ENE 6.9 mph /  11.1 km/h 6.9 mph /  11.1 km/h 61 % 0 in /  0.0 mm
17:13 74.5 °F /  23.6 °C 60.1 °F /  15.6 °C 30.1 in /  1017.8 hPa ESE 6.9 mph /  11.1 km/h 6.9 mph /  11.1 km/h 61 % 0 in /  0.0 mm
17:18 74.1 °F /  23.4 °C 59.7 °F /  15.4 °C 30 in /  1016.8 hPa SSW 10.4 mph /  16.7 km/h 10.4 mph /  16.7 km/h 61 % 0 in /  0.0 mm
17:23 74.1 °F /  23.4 °C 60.3 °F /  15.7 °C 30 in /  1016.8 hPa ENE 5.8 mph /  9.3 km/h 5.8 mph /  9.3 km/h 62 % 0 in /  0.0 mm
17:28 74.1 °F /  23.4 °C 59.7 °F /  15.4 °C 30 in /  1016.8 hPa ESE 8.1 mph /  13.0 km/h 8.1 mph /  13.0 km/h 61 % 0 in /  0.0 mm
17:33 74.1 °F /  23.4 °C 59.7 °F /  15.4 °C 30.1 in /  1017.8 hPa SE 11.5 mph /  18.5 km/h 11.5 mph /  18.5 km/h 61 % 0 in /  0.0 mm
17:38 74.3 °F /  23.5 °C 59.5 °F /  15.3 °C 30.1 in /  1017.8 hPa ESE 6.9 mph /  11.1 km/h 6.9 mph /  11.1 km/h 60 % 0 in /  0.0 mm
17:43 74.7 °F /  23.7 °C 59.9 °F /  15.5 °C 30.1 in /  1017.8 hPa ESE 10 mph /  16.1 km/h 10 mph /  16.1 km/h 60 % 0 in /  0.0 mm
17:48 74.3 °F /  23.5 °C 59.5 °F /  15.3 °C 30.1 in /  1017.8 hPa ENE 5.8 mph /  9.3 km/h 5.8 mph /  9.3 km/h 60 % 0 in /  0.0 mm
17:53 74.5 °F /  23.6 °C 59.7 °F /  15.4 °C 30.1 in /  1017.8 hPa ESE 5.8 mph /  9.3 km/h 5.8 mph /  9.3 km/h 60 % 0 in /  0.0 mm
17:58 73.9 °F /  23.3 °C 59.2 °F /  15.1 °C 30.1 in /  1017.8 hPa ESE 6.9 mph /  11.1 km/h 6.9 mph /  11.1 km/h 60 % 0 in /  0.0 mm
18:03 73.9 °F /  23.3 °C 59.2 °F /  15.1 °C 30.1 in /  1017.8 hPa ESE 8.7 mph /  14.0 km/h 8.7 mph /  14.0 km/h 60 % 0 in /  0.0 mm
18:08 73.6 °F /  23.1 °C 59.4 °F /  15.2 °C 30.1 in /  1017.8 hPa ENE 7.8 mph /  12.6 km/h 7.8 mph /  12.6 km/h 61 % 0 in /  0.0 mm
18:13 73.4 °F /  23.0 °C 58.6 °F /  14.8 °C 30.1 in /  1017.8 hPa ESE 6.4 mph /  10.3 km/h 6.4 mph /  10.3 km/h 60 % 0 in /  0.0 mm
18:18 73.4 °F /  23.0 °C 59.2 °F /  15.1 °C 30.1 in /  1017.8 hPa ENE 8.1 mph /  13.0 km/h 8.1 mph /  13.0 km/h 61 % 0 in /  0.0 mm
18:23 73.2 °F /  22.9 °C 59 °F /  15.0 °C 30.1 in /  1017.8 hPa ESE 6.9 mph /  11.1 km/h 6.9 mph /  11.1 km/h 61 % 0 in /  0.0 mm
18:28 73.2 °F /  22.9 °C 59 °F /  15.0 °C 30.1 in /  1017.8 hPa East 6.9 mph /  11.1 km/h 6.9 mph /  11.1 km/h 61 % 0 in /  0.0 mm
18:33 73 °F /  22.8 °C 58.8 °F /  14.9 °C 30.1 in /  1017.8 hPa ESE 5.8 mph /  9.3 km/h 5.8 mph /  9.3 km/h 61 % 0 in /  0.0 mm
18:38 73 °F /  22.8 °C 58.8 °F /  14.9 °C 30.1 in /  1017.8 hPa SSW 5.8 mph /  9.3 km/h 5.8 mph /  9.3 km/h 61 % 0 in /  0.0 mm
18:43 73 °F /  22.8 °C 58.8 °F /  14.9 °C 30.1 in /  1017.8 hPa ESE 8.1 mph /  13.0 km/h 8.1 mph /  13.0 km/h 61 % 0 in /  0.0 mm
18:48 72.9 °F /  22.7 °C 59.2 °F /  15.1 °C 30.1 in /  1018.8 hPa SE 5.8 mph /  9.3 km/h 5.8 mph /  9.3 km/h 62 % 0 in /  0.0 mm
18:53 72.5 °F /  22.5 °C 58.6 °F /  14.8 °C 30.1 in /  1018.8 hPa ESE 8.1 mph /  13.0 km/h 8.1 mph /  13.0 km/h 62 % 0 in /  0.0 mm
18:58 72.1 °F /  22.3 °C 58.8 °F /  14.9 °C 30.1 in /  1018.8 hPa ESE 7.6 mph /  12.2 km/h 7.6 mph /  12.2 km/h 63 % 0 in /  0.0 mm
19:03 72 °F /  22.2 °C 58.6 °F /  14.8 °C 30.1 in /  1017.8 hPa SE 7.6 mph /  12.2 km/h 7.6 mph /  12.2 km/h 63 % 0 in /  0.0 mm
19:08 71.8 °F /  22.1 °C 58.8 °F /  14.9 °C 30.1 in /  1017.8 hPa ESE 5.8 mph /  9.3 km/h 5.8 mph /  9.3 km/h 64 % 0 in /  0.0 mm
19:13 71.8 °F /  22.1 °C 58.8 °F /  14.9 °C 30.1 in /  1017.8 hPa SSE 8.1 mph /  13.0 km/h 8.1 mph /  13.0 km/h 64 % 0 in /  0.0 mm
19:18 71.8 °F /  22.1 °C 58.8 °F /  14.9 °C 30.1 in /  1017.8 hPa ENE 6.2 mph /  10.0 km/h 6.2 mph /  10.0 km/h 64 % 0 in /  0.0 mm
19:23 71.4 °F /  21.9 °C 59.5 °F /  15.3 °C 30.1 in /  1017.8 hPa ENE 5.8 mph /  9.3 km/h 5.8 mph /  9.3 km/h 66 % 0 in /  0.0 mm
19:28 71.4 °F /  21.9 °C 59.5 °F /  15.3 °C 30.1 in /  1017.8 hPa ESE 3.5 mph /  5.6 km/h 3.5 mph /  5.6 km/h 66 % 0 in /  0.0 mm
19:33 71.2 °F /  21.8 °C 59.4 °F /  15.2 °C 30.1 in /  1018.8 hPa ESE 9 mph /  14.5 km/h 9 mph /  14.5 km/h 66 % 0 in /  0.0 mm
19:38 71.1 °F /  21.7 °C 59.2 °F /  15.1 °C 30.1 in /  1018.8 hPa East 6.9 mph /  11.1 km/h 6.9 mph /  11.1 km/h 66 % 0 in /  0.0 mm
19:43 70.9 °F /  21.6 °C 58.1 °F /  14.5 °C 30.1 in /  1018.8 hPa ESE 6.9 mph /  11.1 km/h 6.9 mph /  11.1 km/h 64 % 0 in /  0.0 mm
19:48 70.7 °F /  21.5 °C 57.6 °F /  14.2 °C 30.1 in /  1019.9 hPa NE 6.9 mph /  11.1 km/h 6.9 mph /  11.1 km/h 63 % 0 in /  0.0 mm
19:53 70.5 °F /  21.4 °C 57.4 °F /  14.1 °C 30.1 in /  1019.9 hPa ENE 4.6 mph /  7.4 km/h 4.6 mph /  7.4 km/h 63 % 0 in /  0.0 mm
19:58 70.3 °F /  21.3 °C 57 °F /  13.9 °C 30.1 in /  1019.9 hPa NNE 3.1 mph /  5.0 km/h 3.1 mph /  5.0 km/h 63 % 0 in /  0.0 mm
20:03 70.2 °F /  21.2 °C 57 °F /  13.9 °C 30.1 in /  1019.9 hPa ENE 5.8 mph /  9.3 km/h 5.8 mph /  9.3 km/h 63 % 0 in /  0.0 mm
20:08 70 °F /  21.1 °C 56.5 °F /  13.6 °C 30.1 in /  1019.9 hPa North 6 mph /  9.7 km/h 6 mph /  9.7 km/h 62 % 0 in /  0.0 mm
20:13 70 °F /  21.1 °C 55.9 °F /  13.3 °C 30.1 in /  1019.9 hPa NNW 8.7 mph /  14.0 km/h 8.7 mph /  14.0 km/h 61 % 0 in /  0.0 mm
20:18 70 °F /  21.1 °C 55 °F /  12.8 °C 30.1 in /  1019.9 hPa North 10.4 mph /  16.7 km/h 10.4 mph /  16.7 km/h 59 % 0 in /  0.0 mm
20:23 70 °F /  21.1 °C 54.5 °F /  12.5 °C 30.1 in /  1019.9 hPa NNE 8.1 mph /  13.0 km/h 8.1 mph /  13.0 km/h 58 % 0 in /  0.0 mm
20:28 70 °F /  21.1 °C 54.5 °F /  12.5 °C 30.1 in /  1019.9 hPa ENE 8.5 mph /  13.7 km/h 8.5 mph /  13.7 km/h 58 % 0 in /  0.0 mm
20:33 69.8 °F /  21.0 °C 54.9 °F /  12.7 °C 30.1 in /  1019.9 hPa NNE 7.8 mph /  12.6 km/h 7.8 mph /  12.6 km/h 59 % 0 in /  0.0 mm
20:38 69.6 °F /  20.9 °C 53.8 °F /  12.1 °C 30.1 in /  1019.9 hPa East 5.8 mph /  9.3 km/h 5.8 mph /  9.3 km/h 57 % 0 in /  0.0 mm
20:43 69.6 °F /  20.9 °C 53.8 °F /  12.1 °C 30.1 in /  1019.9 hPa ENE 5.8 mph /  9.3 km/h 5.8 mph /  9.3 km/h 57 % 0 in /  0.0 mm
20:48 69.6 °F /  20.9 °C 53.2 °F /  11.8 °C 30.1 in /  1019.9 hPa ESE 10.4 mph /  16.7 km/h 10.4 mph /  16.7 km/h 56 % 0 in /  0.0 mm
20:53 69.1 °F /  20.6 °C 53.2 °F /  11.8 °C 30.1 in /  1019.9 hPa NNE 8.1 mph /  13.0 km/h 8.1 mph /  13.0 km/h 57 % 0 in /  0.0 mm
20:58 68.4 °F /  20.2 °C 53.4 °F /  11.9 °C 30.1 in /  1019.9 hPa NNW 6.9 mph /  11.1 km/h 6.9 mph /  11.1 km/h 59 % 0 in /  0.0 mm
21:03 67.8 °F /  19.9 °C 54 °F /  12.2 °C 30.1 in /  1019.9 hPa NNE 9.2 mph /  14.8 km/h 9.2 mph /  14.8 km/h 61 % 0 in /  0.0 mm
21:08 67.8 °F /  19.9 °C 54 °F /  12.2 °C 30.1 in /  1019.9 hPa ENE 4.6 mph /  7.4 km/h 4.6 mph /  7.4 km/h 61 % 0 in /  0.0 mm
21:13 67.5 °F /  19.7 °C 54 °F /  12.2 °C 30.1 in /  1019.9 hPa NNE 5.8 mph /  9.3 km/h 5.8 mph /  9.3 km/h 62 % 0 in /  0.0 mm
21:18 67.1 °F /  19.5 °C 54.1 °F /  12.3 °C 30.2 in /  1020.9 hPa ENE 5.8 mph /  9.3 km/h 5.8 mph /  9.3 km/h 63 % 0 in /  0.0 mm
21:23 66.7 °F /  19.3 °C 53.8 °F /  12.1 °C 30.2 in /  1020.9 hPa ENE 3.1 mph /  5.0 km/h 3.1 mph /  5.0 km/h 63 % 0 in /  0.0 mm
21:28 66.6 °F /  19.2 °C 53.6 °F /  12.0 °C 30.2 in /  1020.9 hPa East 3.5 mph /  5.6 km/h 3.5 mph /  5.6 km/h 63 % 0 in /  0.0 mm
21:33 66.6 °F /  19.2 °C 53.6 °F /  12.0 °C 30.2 in /  1020.9 hPa ENE 4.6 mph /  7.4 km/h 4.6 mph /  7.4 km/h 63 % 0 in /  0.0 mm
21:38 66.4 °F /  19.1 °C 53.1 °F /  11.7 °C 30.2 in /  1020.9 hPa ENE 9.2 mph /  14.8 km/h 9.2 mph /  14.8 km/h 62 % 0 in /  0.0 mm
21:43 66.2 °F /  19.0 °C 53.2 °F /  11.8 °C 30.2 in /  1020.9 hPa NE 6.9 mph /  11.1 km/h 6.9 mph /  11.1 km/h 63 % 0 in /  0.0 mm
21:48 66.2 °F /  19.0 °C 53.2 °F /  11.8 °C 30.2 in /  1021.9 hPa NE 3.5 mph /  5.6 km/h 3.5 mph /  5.6 km/h 63 % 0 in /  0.0 mm
21:53 66 °F /  18.9 °C 54 °F /  12.2 °C 30.2 in /  1021.9 hPa NNE 1.2 mph /  1.9 km/h 1.2 mph /  1.9 km/h 65 % 0 in /  0.0 mm
21:58 65.8 °F /  18.8 °C 53.8 °F /  12.1 °C 30.2 in /  1021.9 hPa ENE 1.2 mph /  1.9 km/h 1.2 mph /  1.9 km/h 65 % 0 in /  0.0 mm
22:03 65.7 °F /  18.7 °C 54 °F /  12.2 °C 30.2 in /  1021.9 hPa North 2.9 mph /  4.7 km/h 2.9 mph /  4.7 km/h 66 % 0 in /  0.0 mm
22:08 64.9 °F /  18.3 °C 54.1 °F /  12.3 °C 30.2 in /  1021.9 hPa North 1.4 mph /  2.3 km/h 1.4 mph /  2.3 km/h 68 % 0 in /  0.0 mm
22:13 64.6 °F /  18.1 °C 54.1 °F /  12.3 °C 30.2 in /  1021.9 hPa NNE 4.3 mph /  6.9 km/h 4.3 mph /  6.9 km/h 69 % 0 in /  0.0 mm
22:18 64.2 °F /  17.9 °C 54.1 °F /  12.3 °C 30.2 in /  1021.9 hPa NNE 3.5 mph /  5.6 km/h 3.5 mph /  5.6 km/h 70 % 0 in /  0.0 mm
22:23 64 °F /  17.8 °C 54.3 °F /  12.4 °C 30.2 in /  1021.9 hPa NE 3.5 mph /  5.6 km/h 3.5 mph /  5.6 km/h 71 % 0 in /  0.0 mm
22:28 63.9 °F /  17.7 °C 54.7 °F /  12.6 °C 30.2 in /  1021.9 hPa NNE 2.9 mph /  4.7 km/h 2.9 mph /  4.7 km/h 72 % 0 in /  0.0 mm
22:33 63.7 °F /  17.6 °C 54.5 °F /  12.5 °C 30.2 in /  1021.9 hPa NNE 2.3 mph /  3.7 km/h 2.3 mph /  3.7 km/h 72 % 0 in /  0.0 mm
22:38 63.5 °F /  17.5 °C 54.3 °F /  12.4 °C 30.2 in /  1021.9 hPa ENE 3.5 mph /  5.6 km/h 3.5 mph /  5.6 km/h 72 % 0 in /  0.0 mm
22:43 63.1 °F /  17.3 °C 54 °F /  12.2 °C 30.2 in /  1021.9 hPa NNE 5.8 mph /  9.3 km/h 5.8 mph /  9.3 km/h 72 % 0 in /  0.0 mm
22:48 63 °F /  17.2 °C 54.1 °F /  12.3 °C 30.2 in /  1021.9 hPa ENE 3.8 mph /  6.1 km/h 3.8 mph /  6.1 km/h 73 % 0 in /  0.0 mm
22:53 63 °F /  17.2 °C 54.1 °F /  12.3 °C 30.2 in /  1021.9 hPa NNE 5.8 mph /  9.3 km/h 5.8 mph /  9.3 km/h 73 % 0 in /  0.0 mm
22:58 62.8 °F /  17.1 °C 54 °F /  12.2 °C 30.2 in /  1021.9 hPa North 4.6 mph /  7.4 km/h 4.6 mph /  7.4 km/h 73 % 0 in /  0.0 mm
23:03 62.8 °F /  17.1 °C 54 °F /  12.2 °C 30.2 in /  1021.9 hPa North 3.6 mph /  5.8 km/h 3.6 mph /  5.8 km/h 73 % 0 in /  0.0 mm
23:08 62.8 °F /  17.1 °C 54 °F /  12.2 °C 30.2 in /  1021.9 hPa NNE 4.6 mph /  7.4 km/h 4.6 mph /  7.4 km/h 73 % 0 in /  0.0 mm
23:13 62.8 °F /  17.1 °C 54.3 °F /  12.4 °C 30.2 in /  1021.9 hPa NE 4 mph /  6.4 km/h 4 mph /  6.4 km/h 74 % 0 in /  0.0 mm
23:18 62.6 °F /  17.0 °C 54.1 °F /  12.3 °C 30.2 in /  1021.9 hPa ENE 2.3 mph /  3.7 km/h 2.3 mph /  3.7 km/h 74 % 0 in /  0.0 mm
23:23 62.6 °F /  17.0 °C 54.1 °F /  12.3 °C 30.2 in /  1021.9 hPa NNE 3.5 mph /  5.6 km/h 3.5 mph /  5.6 km/h 74 % 0 in /  0.0 mm
23:28 62.6 °F /  17.0 °C 54.1 °F /  12.3 °C 30.2 in /  1021.9 hPa NNE 3.8 mph /  6.1 km/h 3.8 mph /  6.1 km/h 74 % 0 in /  0.0 mm
23:29 62.6 °F /  17.0 °C 54.1 °F /  12.3 °C 30.2 in /  1021.9 hPa North 5.8 mph /  9.3 km/h 5.8 mph /  9.3 km/h 74 % 0 in /  0.0 mm
23:34 62.4 °F /  16.9 °C 54.9 °F /  12.7 °C 30.2 in /  1021.9 hPa ENE 3.5 mph /  5.6 km/h 3.5 mph /  5.6 km/h 76 % 0 in /  0.0 mm
23:39 62.4 °F /  16.9 °C 54.9 °F /  12.7 °C 30.2 in /  1021.9 hPa ENE 3.5 mph /  5.6 km/h 3.5 mph /  5.6 km/h 76 % 0 in /  0.0 mm
23:44 62.2 °F /  16.8 °C 54.7 °F /  12.6 °C 30.2 in /  1021.9 hPa NE 2.3 mph /  3.7 km/h 2.3 mph /  3.7 km/h 76 % 0 in /  0.0 mm
23:49 62.2 °F /  16.8 °C 54.7 °F /  12.6 °C 30.2 in /  1021.9 hPa NE 1.2 mph /  1.9 km/h   76 % 0 in /  0.0 mm
23:54 62.1 °F /  16.7 °C 54.3 °F /  12.4 °C 30.2 in /  1021.9 hPa Calm     76 % 0 in /  0.0 mm
23:59 61.9 °F /  16.6 °C 54.1 °F /  12.3 °C 30.2 in /  1021.9 hPa Calm     76 % 0 in /  0.0 mm
Meteo Sesrovires
Elogis d' Weather Underground - 3.5 mb

Guio original per  Jim McMurry - jmcmurry@mwt.net Adaptat per a la plantilla per  Wim van der Kuil - Leuven-Template.eu

Trobareu la nostra informacio del temps tambe a:

Weather Underground

AWEKAS